Darstellungsparameter: Aktuell verwendete Einstellungen:
Skalierung der Graphiken ... ?
xyx+y,   Skalierungsfaktor:      Skalierung: Modus: x, Faktor: 1
Darstellungszeitraum ... ?
Vom - - bis: - -   Zeitraum: 30.09.2005 - 30.09.2005
Min/Max/Avg-Anzeige ... ?
Zeige MMA aktuell
Zeige MMA Monat
Zeige MMA alles
Zeige --A aktuell
Zeige --A Monat
Zeige --A alles
Keine MMA-Anzeige
MMA:
Minimum Maximum Average (ber die Originaldaten)
MMA-Basis: 30.09.2005 - 30.09.2005
Quicknavigation für Darstellung... ?
Tage:      1T, 2T, 3T, 5T -1T -2T -3T -5T +1T +2T +3T +5T
Wochen: 1W, 2W, 3W -1W -2W -3W +1W +2W +3W
Monate: 1M, 3M, 6M -1M -3M -6M +1M +3M +6M
Jahre:    1J, 3J, 5J, 10J -1J -3J -5J -10J +1J +3J +5J +10J
Nutze für die Darstellung ... ?
Originaldaten oder Mittelwerte auf ...
Stundenbasis Tagesbasis Wochenbasis
Monatsbasis Jahresbasis      Datenbasis: Original-Daten
Darstellen als:
Statistik (Auto) Statistik J:M      Darstellung:
Zur Graphik,    zurück zur Übersicht aller Sensoren.
 
Tabellarische Datenbersicht: ?
 
Sensor: Nr:Datum:Temp:Abs-Feuchte:Windchill:Wind:
Aussen-T/F 1 30-09-2005 00:00:03 11.2 C 6.99 g/m*3 11.2 C 0 km/h
2 30-09-2005 00:05:02 11.2 C 6.99 g/m*3 11.2 C 0 km/h
3 30-09-2005 00:10:02 11.1 C 6.95 g/m*3 11.1 C 0 km/h
4 30-09-2005 00:15:03 11.1 C 6.95 g/m*3 11.1 C 0 km/h
5 30-09-2005 00:20:03 11 C 6.91 g/m*3 11 C 0 km/h
6 30-09-2005 00:25:03 11.1 C 6.95 g/m*3 11.1 C 0 km/h
7 30-09-2005 00:30:03 11.1 C 6.95 g/m*3 11.1 C 0 km/h
8 30-09-2005 00:35:02 11.2 C 6.89 g/m*3 11.2 C 0 km/h
9 30-09-2005 00:40:03 11.3 C 6.94 g/m*3 11.3 C 0 km/h
10 30-09-2005 00:45:02 11.2 C 6.89 g/m*3 11.2 C 0 km/h
11 30-09-2005 00:50:02 11.2 C 6.89 g/m*3 11.2 C 0 km/h
12 30-09-2005 00:55:02 10.9 C 6.96 g/m*3 10.9 C 0 km/h
13 30-09-2005 01:00:02 10.7 C 6.88 g/m*3 10.7 C 0 km/h
14 30-09-2005 01:05:02 10.7 C 6.88 g/m*3 10.7 C 0 km/h
15 30-09-2005 01:10:02 10.5 C 6.89 g/m*3 10.5 C 0 km/h
16 30-09-2005 01:15:03 10.4 C 6.84 g/m*3 10.4 C 0 km/h
17 30-09-2005 01:20:03 10.5 C 6.89 g/m*3 10.5 C 0 km/h
18 30-09-2005 01:25:03 10.5 C 6.98 g/m*3 10.5 C 0 km/h
19 30-09-2005 01:30:03 10.6 C 7.03 g/m*3 10.6 C 0 km/h
20 30-09-2005 01:35:03 10.5 C 7.08 g/m*3 10.5 C 0 km/h
21 30-09-2005 01:40:03 10.5 C 7.27 g/m*3 10.5 C 0 km/h
22 30-09-2005 01:45:01 10.1 C 7.28 g/m*3 10.1 C 0 km/h
23 30-09-2005 01:50:01 10 C 7.33 g/m*3 10 C 0 km/h
24 30-09-2005 01:55:01 10 C 7.33 g/m*3 10 C 0 km/h
25 30-09-2005 02:00:01 9.9 C 7.38 g/m*3 9.9 C 0 km/h
Sensor: Nr:Datum:Temp:Abs-Feuchte:Windchill:Wind:
Aussen-T/F 26 30-09-2005 02:05:01 10 C 7.33 g/m*3 10 C 0 km/h
27 30-09-2005 02:10:01 9.9 C 7.38 g/m*3 9.9 C 0 km/h
28 30-09-2005 02:15:01 9.9 C 7.38 g/m*3 9.9 C 0 km/h
29 30-09-2005 02:20:01 10 C 7.24 g/m*3 10 C 0 km/h
30 30-09-2005 02:25:01 10 C 7.24 g/m*3 10 C 0 km/h
31 30-09-2005 02:30:01 10.1 C 7.28 g/m*3 10.1 C 0 km/h
32 30-09-2005 02:35:02 10.1 C 7.28 g/m*3 10.1 C 0 km/h
33 30-09-2005 02:40:03 10 C 7.24 g/m*3 10 C 0 km/h
34 30-09-2005 02:46:04 10 C 7.14 g/m*3 10 C 0 km/h
35 30-09-2005 02:51:04 10 C 7.14 g/m*3 10 C 0 km/h
36 30-09-2005 02:56:04 10 C 7.05 g/m*3 10 C 0 km/h
37 30-09-2005 03:01:04 10 C 7.05 g/m*3 10 C 0 km/h
38 30-09-2005 03:06:04 9.9 C 7.19 g/m*3 9.9 C 0 km/h
39 30-09-2005 03:11:03 9.8 C 7.14 g/m*3 9.8 C 0 km/h
40 30-09-2005 03:16:03 9.8 C 7.14 g/m*3 9.8 C 0 km/h
41 30-09-2005 03:21:04 9.8 C 7.14 g/m*3 9.8 C 0 km/h
42 30-09-2005 03:26:04 9.7 C 7.1 g/m*3 9.7 C 0 km/h
43 30-09-2005 03:31:02 9.7 C 7.1 g/m*3 9.7 C 0 km/h
44 30-09-2005 03:36:02 9.8 C 7.05 g/m*3 9.8 C 0 km/h
45 30-09-2005 03:41:02 9.8 C 7.05 g/m*3 9.8 C 0 km/h
46 30-09-2005 03:46:02 9.8 C 7.05 g/m*3 9.8 C 0 km/h
47 30-09-2005 03:51:02 9.9 C 7 g/m*3 9.9 C 0 km/h
48 30-09-2005 03:56:02 9.9 C 7 g/m*3 9.9 C 0 km/h
49 30-09-2005 04:01:02 10 C 6.95 g/m*3 10 C 0 km/h
50 30-09-2005 04:06:02 9.9 C 7 g/m*3 9.9 C 0 km/h
Sensor: Nr:Datum:Temp:Abs-Feuchte:Windchill:Wind:
Aussen-T/F 51 30-09-2005 04:11:02 9.8 C 6.96 g/m*3 9.8 C 0 km/h
52 30-09-2005 04:16:02 9.9 C 7 g/m*3 9.9 C 0 km/h
53 30-09-2005 04:21:02 9.9 C 7 g/m*3 9.9 C 0 km/h
54 30-09-2005 04:26:02 9.9 C 7 g/m*3 9.9 C 0 km/h
55 30-09-2005 04:31:02 9.9 C 7 g/m*3 9.9 C 0 km/h
56 30-09-2005 04:36:02 9.8 C 6.87 g/m*3 9.8 C 0 km/h
57 30-09-2005 04:41:02 9.8 C 6.96 g/m*3 9.8 C 0 km/h
58 30-09-2005 04:46:02 9.8 C 6.87 g/m*3 9.8 C 0 km/h
59 30-09-2005 04:51:02 9.8 C 6.96 g/m*3 9.8 C 0 km/h
60 30-09-2005 04:56:02 9.7 C 6.91 g/m*3 9.7 C 0 km/h
61 30-09-2005 05:01:02 9.7 C 6.91 g/m*3 9.7 C 0 km/h
62 30-09-2005 05:06:02 9.7 C 6.91 g/m*3 9.7 C 0 km/h
63 30-09-2005 05:11:02 9.7 C 6.91 g/m*3 9.7 C 0 km/h
64 30-09-2005 05:16:02 9.8 C 6.96 g/m*3 9.8 C 0 km/h
65 30-09-2005 05:21:02 9.8 C 6.96 g/m*3 9.8 C 0 km/h
66 30-09-2005 05:26:02 9.8 C 6.96 g/m*3 9.8 C 0 km/h
67 30-09-2005 05:31:02 9.9 C 6.91 g/m*3 9.9 C 0 km/h
68 30-09-2005 05:36:02 9.9 C 6.91 g/m*3 9.9 C 0 km/h
69 30-09-2005 05:41:03 9.9 C 6.91 g/m*3 9.9 C 0 km/h
70 30-09-2005 05:46:01 9.9 C 6.82 g/m*3 9.9 C 0 km/h
71 30-09-2005 05:51:01 9.9 C 6.82 g/m*3 9.9 C 0 km/h
72 30-09-2005 05:56:01 9.9 C 6.82 g/m*3 9.9 C 0 km/h
73 30-09-2005 06:01:01 9.9 C 6.82 g/m*3 9.9 C 0 km/h
74 30-09-2005 06:06:01 9.9 C 6.82 g/m*3 9.9 C 0 km/h
75 30-09-2005 06:11:01 9.8 C 6.77 g/m*3 9.8 C 0 km/h
Sensor: Nr:Datum:Temp:Abs-Feuchte:Windchill:Wind:
Aussen-T/F 76 30-09-2005 06:16:02 9.8 C 6.87 g/m*3 9.8 C 0 km/h
77 30-09-2005 06:21:02 9.8 C 6.87 g/m*3 9.8 C 0 km/h
78 30-09-2005 06:26:02 9.8 C 6.87 g/m*3 9.8 C 0 km/h
79 30-09-2005 06:31:01 9.7 C 6.82 g/m*3 9.7 C 0 km/h
80 30-09-2005 06:36:02 9.6 C 6.78 g/m*3 9.6 C 0 km/h
81 30-09-2005 06:41:02 9.6 C 6.78 g/m*3 9.6 C 0 km/h
82 30-09-2005 06:46:02 9.5 C 6.83 g/m*3 9.5 C 0 km/h
83 30-09-2005 06:51:02 9.3 C 6.74 g/m*3 9.3 C 0 km/h
84 30-09-2005 06:56:02 9.3 C 6.74 g/m*3 9.3 C 0 km/h
85 30-09-2005 07:01:02 9.2 C 6.79 g/m*3 9.2 C 0 km/h
86 30-09-2005 07:06:02 9.3 C 6.74 g/m*3 9.3 C 0 km/h
87 30-09-2005 07:11:02 9.3 C 6.74 g/m*3 9.3 C 0 km/h
88 30-09-2005 07:16:02 9.3 C 6.74 g/m*3 9.3 C 0 km/h
89 30-09-2005 07:21:02 9.2 C 6.7 g/m*3 9.2 C 0 km/h
90 30-09-2005 07:26:02 9.2 C 6.79 g/m*3 9.2 C 0 km/h
91 30-09-2005 07:31:02 9.1 C 6.74 g/m*3 9.1 C 0 km/h
92 30-09-2005 07:36:02 9 C 6.79 g/m*3 9 C 0 km/h
93 30-09-2005 07:41:02 8.8 C 6.79 g/m*3 8.8 C 0 km/h
94 30-09-2005 07:46:02 8.7 C 6.75 g/m*3 8.7 C 0 km/h
95 30-09-2005 07:51:02 8.6 C 6.79 g/m*3 8.6 C 0 km/h
96 30-09-2005 07:56:03 8.5 C 6.74 g/m*3 8.5 C 0 km/h
97 30-09-2005 08:01:02 8.4 C 6.79 g/m*3 8.4 C 0 km/h
98 30-09-2005 08:06:02 8.2 C 6.7 g/m*3 8.2 C 0 km/h
99 30-09-2005 08:11:02 8.2 C 6.78 g/m*3 8.2 C 0 km/h
100 30-09-2005 08:16:01 8.2 C 6.78 g/m*3 8.2 C 0 km/h
Sensor: Nr:Datum:Temp:Abs-Feuchte:Windchill:Wind:
Aussen-T/F 101 30-09-2005 08:21:01 8.4 C 6.96 g/m*3 8.4 C 0 km/h
102 30-09-2005 08:26:01 8.5 C 6.92 g/m*3 8.5 C 0 km/h
103 30-09-2005 08:31:02 8.4 C 6.87 g/m*3 8.4 C 0 km/h
104 30-09-2005 08:36:02 8.4 C 6.87 g/m*3 8.4 C 0 km/h
105 30-09-2005 08:41:02 8.6 C 6.96 g/m*3 8.6 C 0 km/h
106 30-09-2005 08:46:02 8.9 C 7.1 g/m*3 8.9 C 0 km/h
107 30-09-2005 08:51:02 9.1 C 7.1 g/m*3 9.1 C 0 km/h
108 30-09-2005 08:56:02 9.3 C 7.01 g/m*3 9.3 C 0 km/h
109 30-09-2005 09:01:01 9.5 C 6.92 g/m*3 9.5 C 0 km/h
110 30-09-2005 09:06:01 9.5 C 6.92 g/m*3 9.5 C 0 km/h
111 30-09-2005 09:11:01 9.6 C 6.87 g/m*3 9.6 C 0 km/h
112 30-09-2005 09:16:01 9.7 C 6.91 g/m*3 9.7 C 0 km/h
113 30-09-2005 09:21:01 9.7 C 6.91 g/m*3 9.7 C 0 km/h
114 30-09-2005 09:26:01 9.8 C 6.96 g/m*3 9.8 C 0 km/h
115 30-09-2005 09:31:02 9.8 C 6.87 g/m*3 9.8 C 0 km/h
116 30-09-2005 09:36:02 9.9 C 6.91 g/m*3 9.9 C 0 km/h
117 30-09-2005 09:41:02 9.9 C 6.91 g/m*3 9.9 C 0 km/h
118 30-09-2005 09:46:01 10 C 6.86 g/m*3 10 C 0 km/h
119 30-09-2005 09:51:01 10 C 6.77 g/m*3 10 C 0 km/h
120 30-09-2005 09:56:01 10.1 C 6.81 g/m*3 10.1 C 0 km/h
121 30-09-2005 10:01:02 10.2 C 6.85 g/m*3 10.2 C 0 km/h
122 30-09-2005 10:06:02 10.3 C 6.8 g/m*3 10.3 C 0 km/h
123 30-09-2005 10:11:02 10.4 C 6.84 g/m*3 10.4 C 0 km/h
124 30-09-2005 10:16:01 10.5 C 6.79 g/m*3 10.5 C 0 km/h
125 30-09-2005 10:21:01 10.5 C 6.79 g/m*3 10.5 C 0 km/h
Sensor: Nr:Datum:Temp:Abs-Feuchte:Windchill:Wind:
Aussen-T/F 126 30-09-2005 10:26:01 10.7 C 6.88 g/m*3 10.7 C 0 km/h
127 30-09-2005 10:31:01 10.8 C 6.92 g/m*3 10.8 C 0 km/h
128 30-09-2005 10:36:01 10.8 C 6.82 g/m*3 10.8 C 0 km/h
129 30-09-2005 10:41:01 11 C 6.81 g/m*3 11 C 0 km/h
130 30-09-2005 10:46:02 11 C 6.91 g/m*3 11 C 0 km/h
131 30-09-2005 10:51:02 11.1 C 6.85 g/m*3 11.1 C 0 km/h
132 30-09-2005 10:56:02 11.3 C 6.83 g/m*3 11.3 C 0 km/h
133 30-09-2005 11:01:01 11.3 C 6.83 g/m*3 11.3 C 0 km/h
134 30-09-2005 11:06:01 11.7 C 7.01 g/m*3 11.7 C 0 km/h
135 30-09-2005 11:11:01 11.7 C 7.01 g/m*3 11.7 C 0 km/h
136 30-09-2005 11:16:02 11.7 C 6.9 g/m*3 11.7 C 0 km/h
137 30-09-2005 11:21:02 11.9 C 6.88 g/m*3 11.9 C 0 km/h
138 30-09-2005 11:26:02 12 C 6.82 g/m*3 12 C 0 km/h
139 30-09-2005 11:31:02 12.2 C 6.8 g/m*3 12.2 C 0 km/h
140 30-09-2005 11:36:02 12.2 C 6.8 g/m*3 12.2 C 0 km/h
141 30-09-2005 11:41:02 12.2 C 6.8 g/m*3 12.2 C 0 km/h
142 30-09-2005 11:46:02 12.3 C 6.84 g/m*3 12.3 C 0 km/h
143 30-09-2005 11:51:02 12.3 C 6.84 g/m*3 12.3 C 0 km/h
144 30-09-2005 11:56:02 12.5 C 6.93 g/m*3 12.5 C 0 km/h
145 30-09-2005 12:01:02 12.8 C 6.94 g/m*3 12.8 C 0 km/h
146 30-09-2005 12:06:03 13 C 6.92 g/m*3 13 C 0 km/h
147 30-09-2005 12:11:03 13.2 C 6.89 g/m*3 13.2 C 0 km/h
148 30-09-2005 12:16:02 13.1 C 6.73 g/m*3 13.1 C 0 km/h
149 30-09-2005 12:21:02 13.4 C 6.86 g/m*3 13.4 C 0 km/h
150 30-09-2005 12:26:02 13.5 C 6.9 g/m*3 13.5 C 0 km/h
Sensor: Nr:Datum:Temp:Abs-Feuchte:Windchill:Wind:
Aussen-T/F 151 30-09-2005 12:31:02 13.6 C 6.71 g/m*3 13.6 C 0 km/h
152 30-09-2005 12:36:02 13.7 C 6.75 g/m*3 13.7 C 0 km/h
153 30-09-2005 12:41:02 13.9 C 6.83 g/m*3 13.9 C 0 km/h
154 30-09-2005 12:46:03 13.8 C 6.67 g/m*3 13.8 C 0 km/h
155 30-09-2005 12:51:03 13.7 C 6.63 g/m*3 13.7 C 0 km/h
156 30-09-2005 12:56:03 13.8 C 6.79 g/m*3 13.8 C 0 km/h
157 30-09-2005 13:01:03 14.1 C 6.67 g/m*3 14.1 C 0 km/h
158 30-09-2005 13:06:03 14.1 C 6.55 g/m*3 14.1 C 0 km/h
159 30-09-2005 13:11:03 14.1 C 6.55 g/m*3 14.1 C 0 km/h
160 30-09-2005 13:16:02 14.4 C 6.8 g/m*3 14.4 C 0 km/h
161 30-09-2005 13:21:02 14.7 C 6.67 g/m*3 14.7 C 0 km/h
162 30-09-2005 13:26:03 14.9 C 6.75 g/m*3 14.9 C 0 km/h
163 30-09-2005 13:31:02 14.8 C 6.59 g/m*3 14.8 C 0 km/h
164 30-09-2005 13:36:02 14.9 C 6.63 g/m*3 14.9 C 0 km/h
165 30-09-2005 13:41:02 15 C 6.54 g/m*3 15 C 0 km/h
166 30-09-2005 13:46:02 15 C 6.54 g/m*3 15 C 0 km/h
167 30-09-2005 13:51:03 15.2 C 6.62 g/m*3 15.2 C 0 km/h
168 30-09-2005 13:56:03 15.2 C 6.36 g/m*3 15.2 C 0 km/h
169 30-09-2005 14:01:02 15 C 6.28 g/m*3 15 C 0 km/h
170 30-09-2005 14:06:02 15.1 C 6.32 g/m*3 15.1 C 0 km/h
171 30-09-2005 14:11:02 15.2 C 6.36 g/m*3 15.2 C 0 km/h
172 30-09-2005 14:16:01 15.2 C 6.23 g/m*3 15.2 C 0 km/h
173 30-09-2005 14:21:01 15.1 C 6.19 g/m*3 15.1 C 0 km/h
174 30-09-2005 14:26:01 15.2 C 6.36 g/m*3 15.2 C 0 km/h
175 30-09-2005 14:31:02 15.4 C 6.44 g/m*3 15.4 C 0 km/h
Sensor: Nr:Datum:Temp:Abs-Feuchte:Windchill:Wind:
Aussen-T/F 176 30-09-2005 14:36:02 15.3 C 6.4 g/m*3 15.3 C 0 km/h
177 30-09-2005 14:41:02 15.4 C 6.44 g/m*3 15.4 C 0 km/h
178 30-09-2005 14:46:01 15.5 C 6.48 g/m*3 15.5 C 0 km/h
179 30-09-2005 14:51:01 15.5 C 6.34 g/m*3 15.5 C 0 km/h
180 30-09-2005 14:56:01 15.6 C 6.38 g/m*3 15.6 C 0 km/h
181 30-09-2005 15:01:02 15.8 C 6.6 g/m*3 15.8 C 0 km/h
182 30-09-2005 15:06:02 15.8 C 6.46 g/m*3 15.8 C 0 km/h
183 30-09-2005 15:11:02 15.8 C 6.46 g/m*3 15.8 C 0 km/h
184 30-09-2005 15:16:02 15.7 C 6.42 g/m*3 15.7 C 0 km/h
185 30-09-2005 15:21:02 15.6 C 6.38 g/m*3 15.6 C 0 km/h
186 30-09-2005 15:26:02 15.4 C 6.31 g/m*3 15.4 C 0 km/h
187 30-09-2005 15:31:02 15.5 C 6.48 g/m*3 15.5 C 0 km/h
188 30-09-2005 15:36:02 15.2 C 6.36 g/m*3 15.2 C 0 km/h
189 30-09-2005 15:41:02 15.3 C 6.4 g/m*3 15.3 C 0 km/h
190 30-09-2005 15:46:02 14.9 C 6.37 g/m*3 14.9 C 0 km/h
191 30-09-2005 15:51:02 15.1 C 6.45 g/m*3 15.1 C 0 km/h
192 30-09-2005 15:56:02 15.1 C 6.45 g/m*3 15.1 C 0 km/h
193 30-09-2005 16:01:03 15 C 6.41 g/m*3 15 C 0 km/h
194 30-09-2005 16:06:03 14.9 C 6.37 g/m*3 14.9 C 0 km/h
195 30-09-2005 16:11:03 14.9 C 6.37 g/m*3 14.9 C 0 km/h
196 30-09-2005 16:16:02 15 C 6.41 g/m*3 15 C 0 km/h
197 30-09-2005 16:21:02 15 C 6.41 g/m*3 15 C 0 km/h
198 30-09-2005 16:26:02 15 C 6.8 g/m*3 15 C 0 km/h
199 30-09-2005 16:31:03 15 C 6.54 g/m*3 15 C 0 km/h
200 30-09-2005 16:36:03 15 C 6.41 g/m*3 15 C 0 km/h
Sensor: Nr:Datum:Temp:Abs-Feuchte:Windchill:Wind:
Aussen-T/F 201 30-09-2005 16:41:03 15 C 6.41 g/m*3 15 C 0 km/h
202 30-09-2005 16:46:02 15 C 6.41 g/m*3 15 C 0 km/h
203 30-09-2005 16:51:02 15 C 6.41 g/m*3 15 C 0 km/h
204 30-09-2005 16:56:02 15 C 6.41 g/m*3 15 C 0 km/h
205 30-09-2005 17:01:03 15 C 6.41 g/m*3 15 C 0 km/h
206 30-09-2005 17:06:03 15 C 6.41 g/m*3 15 C 0 km/h
207 30-09-2005 17:11:03 15.1 C 6.58 g/m*3 15.1 C 0 km/h
208 30-09-2005 17:16:02 15.1 C 6.71 g/m*3 15.1 C 0 km/h
209 30-09-2005 17:21:03 15.2 C 6.75 g/m*3 15.2 C 0 km/h
210 30-09-2005 17:26:03 15.2 C 6.62 g/m*3 15.2 C 0 km/h
211 30-09-2005 17:31:02 15.2 C 6.75 g/m*3 15.2 C 0 km/h
212 30-09-2005 17:36:02 15.1 C 6.97 g/m*3 15.1 C 0 km/h
213 30-09-2005 17:41:02 15.1 C 7.35 g/m*3 15.1 C 0 km/h
214 30-09-2005 17:46:02 14.9 C 7.26 g/m*3 14.9 C 0 km/h
215 30-09-2005 17:51:03 14.9 C 7.14 g/m*3 14.9 C 0 km/h
216 30-09-2005 17:56:03 14.9 C 6.88 g/m*3 14.9 C 0 km/h
217 30-09-2005 18:01:01 14.8 C 7.22 g/m*3 14.8 C 0 km/h
218 30-09-2005 18:06:01 14.8 C 7.47 g/m*3 14.8 C 0 km/h
219 30-09-2005 18:11:01 14.7 C 7.3 g/m*3 14.7 C 0 km/h
220 30-09-2005 18:16:01 14.8 C 7.35 g/m*3 14.8 C 0 km/h
221 30-09-2005 18:21:01 14.9 C 7.52 g/m*3 14.9 C 0 km/h
222 30-09-2005 18:26:01 14.8 C 7.47 g/m*3 14.8 C 0 km/h
223 30-09-2005 18:31:02 14.8 C 7.35 g/m*3 14.8 C 0 km/h
224 30-09-2005 18:36:02 14.7 C 7.3 g/m*3 14.7 C 0 km/h
225 30-09-2005 18:41:02 14.7 C 7.3 g/m*3 14.7 C 0 km/h
Sensor: Nr:Datum:Temp:Abs-Feuchte:Windchill:Wind:
Aussen-T/F 226 30-09-2005 18:46:02 14.6 C 7.38 g/m*3 14.6 C 0 km/h
227 30-09-2005 18:51:02 14.5 C 6.96 g/m*3 14.5 C 0 km/h
228 30-09-2005 18:56:03 14.5 C 7.09 g/m*3 14.5 C 0 km/h
229 30-09-2005 19:01:02 14.4 C 7.29 g/m*3 14.4 C 0 km/h
230 30-09-2005 19:06:02 14.4 C 7.29 g/m*3 14.4 C 0 km/h
231 30-09-2005 19:11:02 14.3 C 7.37 g/m*3 14.3 C 0 km/h
232 30-09-2005 19:16:02 14.2 C 7.2 g/m*3 14.2 C 0 km/h
233 30-09-2005 19:21:02 14.2 C 7.33 g/m*3 14.2 C 0 km/h
234 30-09-2005 19:26:02 14.1 C 7.52 g/m*3 14.1 C 0 km/h
235 30-09-2005 19:31:02 14 C 7.48 g/m*3 14 C 0 km/h
236 30-09-2005 19:36:02 14.1 C 7.28 g/m*3 14.1 C 0 km/h
237 30-09-2005 19:41:02 14.1 C 7.04 g/m*3 14.1 C 0 km/h
238 30-09-2005 19:46:02 14.1 C 7.04 g/m*3 14.1 C 0 km/h
239 30-09-2005 19:51:02 14.2 C 6.96 g/m*3 14.2 C 0 km/h
240 30-09-2005 19:56:02 14.2 C 7.08 g/m*3 14.2 C 0 km/h
241 30-09-2005 20:01:02 14.2 C 7.2 g/m*3 14.2 C 0 km/h
242 30-09-2005 20:06:02 14.1 C 7.04 g/m*3 14.1 C 0 km/h
243 30-09-2005 20:11:02 14.1 C 7.04 g/m*3 14.1 C 0 km/h
244 30-09-2005 20:16:02 14.1 C 7.16 g/m*3 14.1 C 0 km/h
245 30-09-2005 20:21:02 14.1 C 7.28 g/m*3 14.1 C 0 km/h
246 30-09-2005 20:26:02 14.1 C 7.28 g/m*3 14.1 C 0 km/h
247 30-09-2005 20:31:03 14 C 7 g/m*3 14 C 0 km/h
248 30-09-2005 20:36:03 14.1 C 7.04 g/m*3 14.1 C 0 km/h
249 30-09-2005 20:41:03 14.1 C 7.04 g/m*3 14.1 C 0 km/h
250 30-09-2005 20:46:02 14.1 C 7.28 g/m*3 14.1 C 0 km/h
Sensor: Nr:Datum:Temp:Abs-Feuchte:Windchill:Wind:
Aussen-T/F 251 30-09-2005 20:51:02 14 C 7.24 g/m*3 14 C 0 km/h
252 30-09-2005 20:56:03 14.1 C 7.16 g/m*3 14.1 C 0 km/h
253 30-09-2005 21:01:02 14.1 C 7.16 g/m*3 14.1 C 0 km/h
254 30-09-2005 21:06:02 14.1 C 7.16 g/m*3 14.1 C 0 km/h
255 30-09-2005 21:11:02 14.1 C 7.16 g/m*3 14.1 C 0 km/h
256 30-09-2005 21:16:03 14.1 C 7.16 g/m*3 14.1 C 0 km/h
257 30-09-2005 21:21:03 14.1 C 7.16 g/m*3 14.1 C 0 km/h
258 30-09-2005 21:26:03 14.1 C 7.16 g/m*3 14.1 C 0 km/h
259 30-09-2005 21:31:02 14.1 C 7.16 g/m*3 14.1 C 0 km/h
260 30-09-2005 21:36:02 14.1 C 7.28 g/m*3 14.1 C 0 km/h
261 30-09-2005 21:41:02 14 C 7.36 g/m*3 14 C 0 km/h
262 30-09-2005 21:46:02 14.1 C 7.28 g/m*3 14.1 C 0 km/h
263 30-09-2005 21:51:02 14.1 C 7.16 g/m*3 14.1 C 0 km/h
264 30-09-2005 21:56:03 14.1 C 7.16 g/m*3 14.1 C 0 km/h
265 30-09-2005 22:01:02 14.2 C 7.2 g/m*3 14.2 C 0 km/h
266 30-09-2005 22:06:02 14.2 C 7.2 g/m*3 14.2 C 0 km/h
267 30-09-2005 22:11:02 14.2 C 7.2 g/m*3 14.2 C 0 km/h
268 30-09-2005 22:16:02 14.2 C 7.33 g/m*3 14.2 C 0 km/h
269 30-09-2005 22:21:02 14.2 C 7.33 g/m*3 14.2 C 0 km/h
270 30-09-2005 22:26:02 14.2 C 7.33 g/m*3 14.2 C 0 km/h
271 30-09-2005 22:31:02 14.2 C 7.33 g/m*3 14.2 C 0 km/h
272 30-09-2005 22:36:02 14.2 C 7.45 g/m*3 14.2 C 0 km/h
273 30-09-2005 22:41:02 14.2 C 7.45 g/m*3 14.2 C 0 km/h
274 30-09-2005 22:46:02 14.2 C 7.45 g/m*3 14.2 C 0 km/h
275 30-09-2005 22:51:03 14.2 C 7.57 g/m*3 14.2 C 0 km/h
Sensor: Nr:Datum:Temp:Abs-Feuchte:Windchill:Wind:
Aussen-T/F 276 30-09-2005 22:56:03 14.2 C 7.57 g/m*3 14.2 C 0 km/h
277 30-09-2005 23:01:02 14.1 C 7.52 g/m*3 14.1 C 0 km/h
278 30-09-2005 23:06:02 14.1 C 7.52 g/m*3 14.1 C 0 km/h
279 30-09-2005 23:11:02 14.1 C 7.65 g/m*3 14.1 C 0 km/h
280 30-09-2005 23:16:02 14.1 C 7.65 g/m*3 14.1 C 0 km/h
281 30-09-2005 23:21:02 14.1 C 7.65 g/m*3 14.1 C 0 km/h
282 30-09-2005 23:26:02 14.1 C 7.65 g/m*3 14.1 C 0 km/h
283 30-09-2005 23:31:02 14.1 C 7.65 g/m*3 14.1 C 0 km/h
284 30-09-2005 23:36:02 14.1 C 7.65 g/m*3 14.1 C 0 km/h
285 30-09-2005 23:41:02 14.1 C 7.65 g/m*3 14.1 C 0 km/h
286 30-09-2005 23:46:02 14.1 C 7.65 g/m*3 14.1 C 0 km/h
287 30-09-2005 23:51:02 14.1 C 7.65 g/m*3 14.1 C 0 km/h
288 30-09-2005 23:56:03 14 C 7.6 g/m*3 14 C 0 km/h

Legende:
   Min
   Max


Maximal/Minimal-Werte vom 30.09.2005 - 30.09.2005

Sensor Min Max Avg
Temp
(Aussen-T/F)
8.2 °C
30-09-2005  08:06:02
15.8 °C
30-09-2005  15:01:02
12.3 °C
Abs-Feuchte
(Aussen-T/F)
6.19 g/m*3
30-09-2005  14:21:01
7.65 g/m*3
30-09-2005  23:11:02
6.92 g/m*3
Windchill
(Aussen-T/F)
8.2 C
30-09-2005  08:06:02
15.8 C
30-09-2005  15:01:02
12.25 C

Die Daten stammen von einer Davis Vantage Pro 2 Wetter-Station und werden unter Linux mit der Software wview2wettercgi und aufbereitet. Alle Angaben erfolgen ohne Gewähr für ihre Vollständigkeit oder Richtigkeit.
Kontakt: Rainer Krienke krienke@uni-koblenz.de . Meine Webseiten an der Uni Koblenz oder privat.
Version: $Revision: 0.78 $